createdAt,value
2018-06-14T00:01:10.448Z,6.27
2018-06-14T00:03:38.742Z,5.43
2018-06-14T00:06:07.282Z,5.87
2018-06-14T00:08:35.749Z,6.17
2018-06-14T00:11:04.116Z,5.30
2018-06-14T00:13:32.533Z,5.03
2018-06-14T00:16:00.891Z,5.37
2018-06-14T00:18:29.233Z,5.60
2018-06-14T00:20:57.606Z,5.90
2018-06-14T00:23:25.923Z,6.53
2018-06-14T00:25:54.269Z,5.93
2018-06-14T00:28:22.706Z,6.10
2018-06-14T00:30:50.985Z,5.90
2018-06-14T00:33:19.465Z,5.83
2018-06-14T00:35:47.829Z,5.50
2018-06-14T00:38:16.200Z,6.20
2018-06-14T00:40:44.580Z,5.37
2018-06-14T00:43:13.023Z,5.83
2018-06-14T00:45:41.316Z,5.73
2018-06-14T00:48:09.634Z,5.60
2018-06-14T00:50:37.884Z,5.63
2018-06-14T00:53:06.175Z,5.67
2018-06-14T00:55:34.494Z,6.03
2018-06-14T00:58:02.847Z,5.40
2018-06-14T01:00:31.222Z,5.50
2018-06-14T01:02:59.625Z,5.27
2018-06-14T01:05:28.021Z,5.70
2018-06-14T01:07:56.345Z,5.63
2018-06-14T01:10:24.749Z,4.87
2018-06-14T01:12:53.057Z,5.50
2018-06-14T01:15:21.425Z,5.47
2018-06-14T01:17:49.841Z,5.40
2018-06-14T01:20:18.310Z,5.20
2018-06-14T01:22:46.682Z,5.17
2018-06-14T01:25:15.067Z,5.87
2018-06-14T01:27:43.385Z,5.20
2018-06-14T01:30:11.690Z,4.90
2018-06-14T01:32:39.994Z,5.30
2018-06-14T01:35:08.330Z,5.93
2018-06-14T01:37:47.827Z,4.57
2018-06-14T01:40:16.152Z,5.90
2018-06-14T01:42:44.446Z,4.87
2018-06-14T01:45:12.756Z,5.40
2018-06-14T01:47:41.094Z,5.20
2018-06-14T01:50:09.366Z,5.00
2018-06-14T01:52:37.690Z,5.37
2018-06-14T01:55:06.001Z,5.27
2018-06-14T01:57:34.317Z,4.97
2018-06-14T02:00:02.599Z,5.80
2018-06-14T02:02:30.861Z,5.87
2018-06-14T02:04:59.175Z,5.23
2018-06-14T02:07:27.492Z,5.47
2018-06-14T02:09:55.813Z,5.20
2018-06-14T02:12:24.107Z,6.20
2018-06-14T02:14:52.406Z,4.97
2018-06-14T02:17:20.736Z,5.10
2018-06-14T02:19:49.025Z,5.20
2018-06-14T02:22:17.329Z,5.27
2018-06-14T02:24:45.664Z,5.53
2018-06-14T02:27:13.993Z,5.13
2018-06-14T02:29:42.306Z,4.77
2018-06-14T02:32:10.622Z,4.93
2018-06-14T02:34:39.052Z,5.20
2018-06-14T02:37:07.445Z,5.90
2018-06-14T02:39:35.741Z,6.03
2018-06-14T02:42:04.049Z,5.63
2018-06-14T02:44:32.344Z,6.27
2018-06-14T02:47:00.606Z,6.23
2018-06-14T02:49:28.932Z,5.67
2018-06-14T02:51:57.394Z,5.80
2018-06-14T02:54:25.726Z,5.30
2018-06-14T02:56:54.046Z,5.80
2018-06-14T02:59:22.361Z,6.00
2018-06-14T03:01:50.655Z,5.50
2018-06-14T03:04:19.341Z,5.80
2018-06-14T03:06:47.716Z,6.13
2018-06-14T03:09:16.007Z,5.50
2018-06-14T03:11:44.358Z,5.20
2018-06-14T03:14:12.629Z,6.10
2018-06-14T03:16:40.984Z,5.37
2018-06-14T03:19:09.279Z,5.63
2018-06-14T03:21:37.564Z,6.40
2018-06-14T03:24:05.881Z,5.60
2018-06-14T03:26:34.163Z,6.37
2018-06-14T03:29:02.449Z,6.30
2018-06-14T03:31:30.759Z,6.23
2018-06-14T03:33:59.049Z,5.40
2018-06-14T03:36:27.441Z,6.30
2018-06-14T03:38:55.734Z,6.10
2018-06-14T03:41:24.044Z,6.13
2018-06-14T03:43:52.346Z,6.13
2018-06-14T03:46:20.641Z,6.30
2018-06-14T03:48:48.881Z,6.10
2018-06-14T03:51:17.201Z,6.83
2018-06-14T03:53:45.474Z,6.40
2018-06-14T03:56:13.808Z,6.60
2018-06-14T03:58:42.057Z,6.90
2018-06-14T04:01:10.385Z,6.23
2018-06-14T04:03:38.678Z,6.87
2018-06-14T04:06:07.009Z,6.90
2018-06-14T04:08:35.463Z,6.77
2018-06-14T04:11:03.798Z,6.97
2018-06-14T04:13:32.108Z,6.23
2018-06-14T04:16:00.481Z,6.57
2018-06-14T04:18:28.803Z,6.43
2018-06-14T04:20:57.097Z,7.00
2018-06-14T04:23:25.393Z,6.23
2018-06-14T04:25:53.703Z,6.10
2018-06-14T04:28:21.967Z,5.67
2018-06-14T04:30:50.290Z,6.40
2018-06-14T04:33:18.644Z,7.03
2018-06-14T04:35:46.995Z,7.10
2018-06-14T04:38:15.306Z,6.20
2018-06-14T04:40:43.632Z,6.30
2018-06-14T04:43:12.010Z,5.57
2018-06-14T04:45:40.302Z,6.10
2018-06-14T04:48:08.638Z,6.43
2018-06-14T04:50:36.967Z,6.37
2018-06-14T04:53:05.274Z,6.80
2018-06-14T04:55:33.603Z,6.87
2018-06-14T04:58:01.911Z,7.00
2018-06-14T05:00:30.173Z,6.17
2018-06-14T05:02:58.526Z,6.57
2018-06-14T05:05:26.844Z,6.67
2018-06-14T05:07:55.192Z,6.03
2018-06-14T05:10:23.592Z,6.63
2018-06-14T05:12:51.917Z,6.37
2018-06-14T05:15:20.285Z,6.20
2018-06-14T05:17:48.542Z,6.63
2018-06-14T05:20:16.923Z,6.30
2018-06-14T05:22:45.217Z,6.13
2018-06-14T05:25:13.545Z,6.23
2018-06-14T05:27:41.861Z,6.00
2018-06-14T05:30:10.150Z,5.60
2018-06-14T05:32:38.461Z,5.83
2018-06-14T05:35:06.756Z,5.60
2018-06-14T05:37:35.121Z,5.97
2018-06-14T05:40:03.476Z,6.23
2018-06-14T05:42:31.787Z,6.47
2018-06-14T05:45:00.095Z,6.23
2018-06-14T05:47:28.399Z,5.50
2018-06-14T05:49:56.688Z,5.50
2018-06-14T05:52:24.962Z,5.90
2018-06-14T05:54:53.256Z,5.10
2018-06-14T05:57:21.559Z,5.80
2018-06-14T05:59:49.855Z,5.00
2018-06-14T06:02:18.195Z,5.37
2018-06-14T06:04:46.763Z,5.40
2018-06-14T06:07:15.075Z,4.80
2018-06-14T06:09:43.362Z,5.40
2018-06-14T06:12:11.628Z,5.77
2018-06-14T06:14:39.899Z,5.23
2018-06-14T06:17:08.205Z,4.73
2018-06-14T06:19:36.528Z,5.87
2018-06-14T06:22:04.826Z,5.80
2018-06-14T06:24:33.139Z,6.20
2018-06-14T06:27:01.660Z,5.53
2018-06-14T06:29:29.942Z,5.17
2018-06-14T06:31:58.298Z,4.87
2018-06-14T06:34:26.675Z,5.60
2018-06-14T06:36:54.990Z,4.70
2018-06-14T06:39:23.299Z,5.10
2018-06-14T06:41:51.611Z,4.87
2018-06-14T06:44:19.933Z,5.03
2018-06-14T06:46:48.248Z,5.10
2018-06-14T06:49:16.552Z,4.67
2018-06-14T06:51:44.850Z,3.70
2018-06-14T06:54:13.150Z,4.30
2018-06-14T06:56:41.458Z,4.63
2018-06-14T06:59:09.818Z,4.47
2018-06-14T07:01:38.095Z,4.30
2018-06-14T07:04:06.413Z,4.77
2018-06-14T07:06:34.711Z,4.43
2018-06-14T07:09:03.142Z,4.30
2018-06-14T07:11:31.474Z,4.53
2018-06-14T07:13:59.772Z,4.37
2018-06-14T07:16:28.069Z,4.43
2018-06-14T07:18:56.434Z,4.10
2018-06-14T07:21:24.721Z,4.03
2018-06-14T07:23:53.042Z,3.90
2018-06-14T07:26:21.343Z,3.70
2018-06-14T07:28:49.654Z,4.47
2018-06-14T07:31:17.967Z,3.93
2018-06-14T07:33:46.251Z,3.67
2018-06-14T07:36:14.509Z,3.57
2018-06-14T07:38:42.850Z,3.00
2018-06-14T07:41:11.219Z,3.13
2018-06-14T07:43:39.555Z,3.20
2018-06-14T07:46:07.865Z,3.43
2018-06-14T07:48:36.200Z,3.70
2018-06-14T07:51:04.534Z,4.17
2018-06-14T07:53:32.839Z,3.50
2018-06-14T07:56:01.153Z,3.93
2018-06-14T07:58:29.454Z,3.20
2018-06-14T08:00:58.129Z,3.53
2018-06-14T08:03:26.437Z,3.43
2018-06-14T08:05:54.770Z,3.70
2018-06-14T08:08:23.071Z,3.73
2018-06-14T08:10:51.389Z,3.50
2018-06-14T08:13:19.717Z,3.77
2018-06-14T08:15:47.803Z,3.10
2018-06-14T08:18:16.130Z,2.97
2018-06-14T08:20:44.483Z,3.00
2018-06-14T08:23:12.746Z,3.07
2018-06-14T08:25:41.021Z,3.30
2018-06-14T08:28:09.283Z,4.03
2018-06-14T08:30:37.646Z,3.57
2018-06-14T08:33:05.931Z,3.20
2018-06-14T08:35:34.202Z,4.63
2018-06-14T08:38:02.546Z,3.63
2018-06-14T08:40:30.859Z,4.27
2018-06-14T08:42:59.198Z,4.00
2018-06-14T08:45:27.469Z,3.70
2018-06-14T08:47:55.813Z,3.63
2018-06-14T08:50:24.082Z,4.00
2018-06-14T08:52:52.354Z,3.47
2018-06-14T08:55:20.655Z,3.57
2018-06-14T08:57:48.954Z,3.70
2018-06-14T09:00:17.280Z,3.40
2018-06-14T09:02:45.653Z,3.70
2018-06-14T09:05:13.952Z,4.10
2018-06-14T09:07:42.369Z,3.67
2018-06-14T09:10:10.698Z,3.90
2018-06-14T09:12:38.953Z,3.23
2018-06-14T09:15:07.300Z,3.77
2018-06-14T09:17:35.593Z,3.90
2018-06-14T09:20:03.974Z,3.60
2018-06-14T09:22:32.263Z,3.67
2018-06-14T09:25:00.642Z,3.30
2018-06-14T09:27:28.980Z,2.50
2018-06-14T09:29:57.370Z,3.20
2018-06-14T09:32:25.689Z,3.30
2018-06-14T09:34:53.994Z,3.00
2018-06-14T09:37:22.291Z,3.00
2018-06-14T09:39:50.619Z,3.47
2018-06-14T09:42:18.934Z,3.10
2018-06-14T09:44:47.227Z,3.10
2018-06-14T09:47:15.300Z,3.37
2018-06-14T09:49:43.651Z,3.20
2018-06-14T09:52:11.987Z,2.90
2018-06-14T09:54:40.404Z,3.37
2018-06-14T09:57:09.194Z,2.90
2018-06-14T09:59:37.574Z,3.20
2018-06-14T10:02:05.924Z,3.23
2018-06-14T10:04:34.195Z,3.23
2018-06-14T10:07:02.518Z,3.53
2018-06-14T10:09:30.832Z,3.70
2018-06-14T10:11:59.134Z,3.17
2018-06-14T10:14:27.457Z,3.20
2018-06-14T10:16:55.805Z,3.20
2018-06-14T10:19:24.105Z,2.90
2018-06-14T10:21:52.404Z,3.20
2018-06-14T10:24:20.707Z,2.90
2018-06-14T10:26:48.991Z,2.63
2018-06-14T10:29:17.354Z,2.80
2018-06-14T10:31:45.644Z,2.77
2018-06-14T10:34:13.956Z,3.67
2018-06-14T10:36:42.227Z,2.60
2018-06-14T10:39:10.543Z,3.40
2018-06-14T10:41:38.837Z,2.63
2018-06-14T10:44:07.126Z,3.23
2018-06-14T10:46:35.451Z,2.33
2018-06-14T10:49:03.752Z,2.40
2018-06-14T10:51:32.050Z,3.27
2018-06-14T10:54:00.380Z,3.00
2018-06-14T10:56:28.641Z,2.93
2018-06-14T10:58:56.957Z,2.70
2018-06-14T11:01:25.267Z,3.10
2018-06-14T11:03:53.959Z,2.60
2018-06-14T11:06:22.282Z,2.90
2018-06-14T11:08:50.601Z,2.70
2018-06-14T11:11:18.909Z,2.87
2018-06-14T11:13:47.243Z,2.95
2018-06-14T11:16:15.574Z,2.50
2018-06-14T11:18:43.837Z,2.30
2018-06-14T11:21:12.125Z,2.50
2018-06-14T11:23:40.392Z,2.30
2018-06-14T11:26:08.720Z,2.33
2018-06-14T11:28:37.012Z,2.37
2018-06-14T11:31:05.435Z,2.77
2018-06-14T11:33:33.704Z,3.60
2018-06-14T11:36:02.050Z,3.63
2018-06-14T11:38:30.353Z,2.80
2018-06-14T11:40:58.674Z,2.50
2018-06-14T11:43:26.942Z,2.50
2018-06-14T11:45:55.245Z,2.40
2018-06-14T11:48:23.674Z,2.33
2018-06-14T11:50:51.992Z,2.67
2018-06-14T11:53:20.350Z,2.47
2018-06-14T11:55:48.630Z,3.50
2018-06-14T11:58:16.997Z,3.03
2018-06-14T12:00:45.024Z,2.50
2018-06-14T12:03:13.351Z,3.83
2018-06-14T12:05:41.933Z,2.90
2018-06-14T12:08:10.275Z,2.90
2018-06-14T12:10:38.596Z,3.00
2018-06-14T12:13:07.532Z,2.70
2018-06-14T12:15:35.826Z,2.80
2018-06-14T12:18:04.239Z,2.77
2018-06-14T12:20:32.517Z,3.60
2018-06-14T12:23:00.817Z,2.70
2018-06-14T12:25:29.088Z,2.87
2018-06-14T12:27:57.401Z,2.77
2018-06-14T12:30:25.731Z,3.27
2018-06-14T12:32:54.050Z,2.60
2018-06-14T12:35:22.349Z,3.03
2018-06-14T12:37:50.677Z,2.73
2018-06-14T12:40:19.005Z,3.37
2018-06-14T12:42:47.488Z,2.60
2018-06-14T12:45:15.775Z,2.17
2018-06-14T12:47:44.205Z,3.17
2018-06-14T12:50:12.582Z,2.63
2018-06-14T12:52:40.963Z,2.70
2018-06-14T12:55:09.276Z,3.00
2018-06-14T12:57:37.599Z,2.80
2018-06-14T13:00:06.107Z,3.47
2018-06-14T13:02:34.463Z,4.27
2018-06-14T13:05:02.778Z,3.00
2018-06-14T13:07:31.126Z,3.50
2018-06-14T13:09:59.491Z,3.10
2018-06-14T13:12:27.794Z,2.90
2018-06-14T13:14:56.094Z,3.10
2018-06-14T13:17:24.493Z,3.13
2018-06-14T13:19:52.778Z,2.47
2018-06-14T13:22:21.175Z,2.67
2018-06-14T13:24:49.564Z,2.60
2018-06-14T13:27:17.863Z,2.63
2018-06-14T13:29:46.130Z,3.03
2018-06-14T13:32:14.475Z,3.03
2018-06-14T13:34:42.801Z,3.10
2018-06-14T13:37:11.117Z,2.70
2018-06-14T13:39:39.407Z,2.37
2018-06-14T13:42:07.729Z,3.10
2018-06-14T13:44:36.150Z,2.57
2018-06-14T13:47:04.546Z,2.53
2018-06-14T13:49:32.865Z,2.40
2018-06-14T13:52:01.198Z,2.40
2018-06-14T13:54:29.537Z,2.47
2018-06-14T13:56:57.892Z,3.00
2018-06-14T13:59:26.148Z,3.13
2018-06-14T14:01:54.440Z,2.00
2018-06-14T14:04:22.774Z,2.30
2018-06-14T14:06:55.355Z,2.97
2018-06-14T14:09:23.690Z,2.33
2018-06-14T14:11:52.034Z,17.20
2018-06-14T14:14:20.350Z,2.43
2018-06-14T14:16:48.694Z,2.23
2018-06-14T14:19:17.117Z,2.33
2018-06-14T14:21:45.482Z,2.10
2018-06-14T14:24:13.786Z,2.07
2018-06-14T14:26:42.098Z,2.17
2018-06-14T14:29:10.509Z,2.30
2018-06-14T14:31:38.843Z,2.50
2018-06-14T14:34:07.725Z,2.43
2018-06-14T14:36:36.044Z,2.27
2018-06-14T14:39:06.425Z,2.07
2018-06-14T14:41:34.653Z,2.40
2018-06-14T14:44:03.016Z,1.83
2018-06-14T14:46:31.344Z,4.77
2018-06-14T14:48:59.832Z,2.07
2018-06-14T14:51:28.152Z,2.20
2018-06-14T14:53:56.512Z,2.37
2018-06-14T14:56:24.893Z,2.10
2018-06-14T14:58:53.243Z,2.10
2018-06-14T15:01:21.600Z,2.00
2018-06-14T15:03:49.893Z,2.07
2018-06-14T15:06:18.249Z,2.23
2018-06-14T15:08:46.546Z,2.00
2018-06-14T15:11:14.899Z,1.67
2018-06-14T15:13:43.476Z,2.17
2018-06-14T15:16:11.892Z,2.20
2018-06-14T15:18:40.321Z,3.07
2018-06-14T15:21:08.706Z,3.00
2018-06-14T15:23:37.198Z,2.13
2018-06-14T15:26:05.553Z,1.97
2018-06-14T15:28:33.950Z,2.00
2018-06-14T15:31:02.256Z,2.17
2018-06-14T15:33:30.537Z,2.00
2018-06-14T15:35:59.097Z,1.90
2018-06-14T15:38:27.451Z,2.10
2018-06-14T15:40:55.832Z,2.30
2018-06-14T15:43:24.262Z,1.90
2018-06-14T15:45:52.571Z,1.87
2018-06-14T15:48:20.888Z,1.77
2018-06-14T15:50:49.511Z,1.90
2018-06-14T15:53:18.094Z,1.63
2018-06-14T15:56:01.842Z,2.00
2018-06-14T15:58:31.086Z,1.80
2018-06-14T16:00:59.494Z,1.97
2018-06-14T16:03:27.797Z,2.50
2018-06-14T16:05:56.150Z,2.10
2018-06-14T16:08:25.148Z,2.30
2018-06-14T16:10:54.017Z,2.20
2018-06-14T16:13:22.639Z,1.73
2018-06-14T16:15:51.037Z,1.90
2018-06-14T16:18:19.333Z,2.07
2018-06-14T16:20:47.779Z,1.80
2018-06-14T16:23:16.169Z,2.00
2018-06-14T16:25:44.537Z,1.97
2018-06-14T16:28:12.842Z,2.00
2018-06-14T16:30:41.242Z,1.93
2018-06-14T16:33:10.071Z,1.97
2018-06-14T16:35:38.370Z,2.00
2018-06-14T16:38:06.725Z,2.17
2018-06-14T16:40:35.102Z,3.20
2018-06-14T16:43:03.431Z,2.27
2018-06-14T16:45:31.857Z,2.47
2018-06-14T16:48:00.241Z,2.23
2018-06-14T16:50:28.657Z,2.57
2018-06-14T16:52:57.012Z,1.93
2018-06-14T16:55:25.436Z,2.27
2018-06-14T16:57:53.859Z,2.10
2018-06-14T17:00:22.305Z,2.30
2018-06-14T17:02:50.691Z,1.90
2018-06-14T17:05:19.183Z,2.50
2018-06-14T17:07:47.511Z,2.20
2018-06-14T17:10:15.807Z,2.30
2018-06-14T17:12:44.101Z,2.17
2018-06-14T17:15:12.447Z,2.00
2018-06-14T17:17:40.785Z,2.20
2018-06-14T17:20:09.098Z,2.30
2018-06-14T17:22:37.397Z,2.13
2018-06-14T17:25:05.750Z,2.00
2018-06-14T17:27:34.134Z,1.80
2018-06-14T17:30:02.478Z,2.13
2018-06-14T17:32:30.828Z,2.03
2018-06-14T17:34:59.147Z,1.80
2018-06-14T17:37:27.234Z,3.03
2018-06-14T17:39:55.559Z,2.40
2018-06-14T17:42:23.871Z,1.97
2018-06-14T17:44:52.241Z,2.17
2018-06-14T17:47:20.631Z,2.30
2018-06-14T17:49:48.932Z,2.30
2018-06-14T17:52:17.647Z,2.00
2018-06-14T17:54:46.021Z,1.93
2018-06-14T17:57:14.361Z,2.17
2018-06-14T17:59:42.697Z,2.13
2018-06-14T18:02:11.034Z,1.90
2018-06-14T18:04:39.400Z,2.40
2018-06-14T18:07:07.787Z,1.77
2018-06-14T18:09:36.140Z,2.40
2018-06-14T18:12:04.514Z,2.23
2018-06-14T18:14:32.927Z,1.90
2018-06-14T18:17:01.289Z,2.37
2018-06-14T18:19:29.738Z,2.10
2018-06-14T18:21:58.067Z,2.37
2018-06-14T18:24:26.502Z,2.33
2018-06-14T18:26:54.901Z,2.00
2018-06-14T18:29:23.283Z,2.27
2018-06-14T18:31:51.587Z,2.30
2018-06-14T18:34:19.926Z,2.43
2018-06-14T18:36:48.610Z,2.27
2018-06-14T18:39:16.998Z,2.20
2018-06-14T18:41:45.382Z,2.20
2018-06-14T18:44:14.805Z,4.80
2018-06-14T18:46:43.099Z,5.10
2018-06-14T18:49:11.454Z,2.53
2018-06-14T18:51:39.801Z,3.10
2018-06-14T18:54:08.162Z,2.97
2018-06-14T18:56:36.477Z,3.00
2018-06-14T18:59:04.852Z,2.73
2018-06-14T19:01:33.163Z,2.60
2018-06-14T19:04:01.587Z,2.87
2018-06-14T19:06:29.645Z,3.00
2018-06-14T19:08:58.081Z,2.83
2018-06-14T19:11:26.445Z,2.30
2018-06-14T19:13:54.759Z,3.50
2018-06-14T19:16:23.074Z,2.97
2018-06-14T19:18:51.479Z,3.57
2018-06-14T19:21:19.804Z,3.60
2018-06-14T19:23:48.090Z,3.13
2018-06-14T19:26:16.481Z,3.03
2018-06-14T19:28:44.798Z,3.40
2018-06-14T19:31:13.074Z,3.20
2018-06-14T19:33:41.468Z,3.67
2018-06-14T19:36:09.832Z,3.43
2018-06-14T19:38:38.114Z,3.70
2018-06-14T19:41:06.492Z,3.63
2018-06-14T19:43:34.819Z,3.73
2018-06-14T19:46:02.878Z,3.70
2018-06-14T19:48:31.219Z,3.70
2018-06-14T19:51:00.309Z,3.87
2018-06-14T19:53:28.670Z,3.80
2018-06-14T19:55:56.998Z,4.50
2018-06-14T19:58:25.356Z,4.40
2018-06-14T20:00:53.721Z,5.07
2018-06-14T20:03:22.058Z,4.57
2018-06-14T20:05:50.322Z,5.10
2018-06-14T20:08:18.799Z,5.07
2018-06-14T20:10:47.108Z,5.30
2018-06-14T20:13:15.437Z,4.70
2018-06-14T20:15:43.804Z,5.13
2018-06-14T20:18:12.247Z,4.70
2018-06-14T20:20:40.598Z,4.97
2018-06-14T20:23:08.926Z,4.90
2018-06-14T20:25:37.260Z,4.80
2018-06-14T20:28:05.850Z,4.40
2018-06-14T20:30:34.164Z,4.60
2018-06-14T20:33:02.498Z,4.70
2018-06-14T20:35:30.798Z,4.73
2018-06-14T20:37:59.310Z,5.30
2018-06-14T20:40:27.614Z,5.23
2018-06-14T20:42:55.677Z,4.83
2018-06-14T20:45:24.058Z,6.20
2018-06-14T20:47:52.371Z,5.80
2018-06-14T20:50:20.731Z,5.40
2018-06-14T20:52:49.059Z,4.80
2018-06-14T20:55:17.450Z,5.10
2018-06-14T20:57:45.790Z,5.60
2018-06-14T21:00:14.134Z,5.47
2018-06-14T21:02:42.430Z,4.93
2018-06-14T21:05:10.796Z,5.27
2018-06-14T21:07:39.125Z,5.27
2018-06-14T21:10:07.522Z,5.43
2018-06-14T21:12:35.859Z,4.80
2018-06-14T21:15:05.025Z,5.33
2018-06-14T21:17:33.331Z,4.70
2018-06-14T21:20:01.725Z,5.10
2018-06-14T21:22:30.012Z,4.60
2018-06-14T21:24:58.462Z,5.00
2018-06-14T21:27:33.498Z,4.10
2018-06-14T21:30:01.921Z,4.83
2018-06-14T21:32:30.246Z,5.53
2018-06-14T21:34:58.619Z,4.37
2018-06-14T21:37:26.963Z,4.63
2018-06-14T21:39:55.355Z,4.63
2018-06-14T21:42:23.686Z,5.23
2018-06-14T21:44:52.010Z,4.60
2018-06-14T21:47:20.348Z,4.80
2018-06-14T21:49:48.726Z,4.40
2018-06-14T21:52:17.070Z,5.33
2018-06-14T21:54:45.387Z,4.87
2018-06-14T21:57:13.702Z,4.70
2018-06-14T21:59:42.057Z,4.60
2018-06-14T22:02:10.370Z,5.07
2018-06-14T22:04:38.718Z,5.70
2018-06-14T22:07:07.126Z,5.53
2018-06-14T22:09:35.507Z,5.23
2018-06-14T22:12:03.857Z,5.50
2018-06-14T22:14:32.267Z,5.97
2018-06-14T22:17:00.619Z,5.80
2018-06-14T22:19:28.931Z,5.73
2018-06-14T22:21:57.213Z,5.67
2018-06-14T22:24:25.582Z,5.50
2018-06-14T22:26:53.953Z,5.90
2018-06-14T22:29:22.241Z,5.60
2018-06-14T22:31:50.595Z,6.30
2018-06-14T22:34:30.453Z,5.30
2018-06-14T22:36:58.786Z,6.20
2018-06-14T22:39:27.112Z,4.83
2018-06-14T22:41:55.429Z,6.53
2018-06-14T22:44:23.790Z,6.20
2018-06-14T22:46:52.150Z,5.50
2018-06-14T22:49:20.442Z,5.73
2018-06-14T22:53:03.374Z,6.17
2018-06-14T22:55:31.764Z,5.67
2018-06-14T22:58:00.057Z,5.70
2018-06-14T23:01:46.680Z,7.10
2018-06-14T23:04:17.390Z,5.73
2018-06-14T23:06:45.737Z,6.13
2018-06-14T23:10:36.326Z,5.93
2018-06-14T23:13:05.390Z,6.07
2018-06-14T23:15:33.749Z,5.60
2018-06-14T23:18:02.177Z,6.57
2018-06-14T23:20:31.737Z,7.50
2018-06-14T23:23:00.670Z,6.87
2018-06-14T23:25:29.696Z,7.37
2018-06-14T23:27:58.235Z,6.17
2018-06-14T23:30:26.605Z,6.13
2018-06-14T23:32:55.038Z,8.07
2018-06-14T23:35:23.614Z,6.90
2018-06-14T23:37:51.962Z,6.77
2018-06-14T23:40:20.415Z,6.67
2018-06-14T23:42:49.012Z,6.80
2018-06-14T23:45:17.354Z,6.57
2018-06-14T23:47:45.839Z,7.77
2018-06-14T23:50:14.177Z,7.97
2018-06-14T23:52:42.769Z,6.63
2018-06-14T23:55:11.074Z,6.83
2018-06-14T23:57:39.986Z,7.07
